Overview Statistics Trail Chart Weather Telemetry Raw packets
 

This is the latest recevied weather packets stored in our database for station/object CT7BNL-13. If no packets are shown the sender has not sent any weather packets the latest 10 day(s).

<< 6 7 8 9 10 11 12 >>
Time Temp. Humidity Pressure Rain* Wind** Luminosity Snow
1788438866 36.67° C 22% 1028.1 hPa 0 mm - 801 W/m² -
1788437966 37.22° C 24% 1028.1 hPa 0 mm - 803 W/m² -
1788437067 37.22° C 26% 1028.1 hPa 0 mm - 805 W/m² -
1788436165 37.22° C 28% 1028.4 hPa 0 mm - 793 W/m² -
1788435266 35.56° C 30% 1028.4 hPa 0 mm - 785 W/m² -
1788434366 34.44° C 32% 1028.4 hPa 0 mm - 768 W/m² -
1788433467 33.33° C 34% 1028.5 hPa 0 mm - 749 W/m² -
1788432566 32.22° C 37% 1028.7 hPa 0 mm - 726 W/m² -
1788431666 32.22° C 38% 1028.6 hPa 0 mm - 700 W/m² -
1788430765 31.11° C 41% 1028.6 hPa 0 mm - 669 W/m² -
1788429865 29.44° C 44% 1028.7 hPa 0 mm - 618 W/m² -
1788428965 28.33° C 44% 1028.6 hPa 0 mm - 581 W/m² -
1788428066 27.22° C 49% 1028.6 hPa 0 mm - 538 W/m² -
1788427166 25.56° C 55% 1028.6 hPa 0 mm - 508 W/m² -
1788426265 25° C 56% 1028.6 hPa 0 mm - 342 W/m² -
1788425366 25° C 58% 1028.3 hPa 0 mm - 353 W/m² -
1788424466 23.33° C 65% 1028.5 hPa 0 mm - 363 W/m² -
1788423566 22.22° C 70% 1028.7 hPa 0 mm - 314 W/m² -
1788422665 21.67° C 70% 1028.6 hPa 0 mm - 261 W/m² -
1788421765 21.67° C 71% 1028.7 hPa 0 mm - 210 W/m² -
1788420866 19.44° C 81% 1028.7 hPa 0 mm - 128 W/m² -
1788419965 17.78° C 85% 1028.7 hPa 0 mm - 42 W/m² -
1788419066 17.22° C 86% 1028.6 hPa 0 mm - 36 W/m² -
1788418166 17.22° C 84% 1028.7 hPa 0 mm - 30 W/m² -
1788417265 16.67° C 86% 1028.5 hPa 0 mm - 22 W/m² -

* Rain latest hour (hover to see other rain measurements)
** Current wind speed in m/s (hover to see current wind gust speed)